Ellston, Iowa
Current Conditions -  °F | °C
As of 6:53 AM on Wednesday 22 Oct 2014 (Local Time) from KLWD Reporting Station
Broken Clouds Broken Clouds  
Wind Chill: 41°   Ceiling: 5500
Heat Index: 46°   Visibility: 10mi
Dew Point: 40°   Wind: 9mph
Humidity: 79%   Direction: 140°SE
Pressure: 30.22"   Gusts: NA
Location:  40.84°N, 94.11°W
Report Text: KLWD 221153Z AUTO 14008KT 10SM BKN055 BKN080 08/04 A3022 RMK AO2 SLP235 T00780044 10094 20078 51014
Loading
Personal Weather Stations






























Interactive Weather Map
Tropical Storm Tracking
New forecast layout! Learn more

10-Day Weather Forecast

Advertisements
Track Severe Weather on mobile